Saturday, October 25, 2014
15:24 UTC
  |  Log In   |  Register Free
Airport Search:

Williamsburg-Jamestown Airport
(KJGG)

Williamsburg-Jamestown Airport Diagram
No Airport Diagram Available

FAA data valid effective September 18, 2014 - November 13, 2014 (unless otherwise noted).

 
 
 
 
 
 
 
 
 
 
 
 
 
 

Current Aviation Weather for Williamsburg-Jamestown Airport (KJGG)

The most recent METAR observation for KJGG was updated at: 1510
METAR Summary (Translated METAR)
KJGG
251455Z AUTO 03006KT 10SM CLR 19/09 A3000 RMK AO1
KFAF
251458Z AUTO 32006KT 10SM CLR 18/05 A2998 RMK AO2 SLP155 T01780054 50003 $
(8.2 nm SE from KJGG)
KPHF
251454Z 02006KT 10SM -RA CLR 19/06 A2999 RMK AO2 SLP153 P0000 60000 T01940061 51002
(12.5 nm SE from KJGG)
TAF Summary (Translated TAF)
KFAF
(8.2 nm SE from KJGG)
2420/2524 31012KT 9999 FEW100 QNH2989INS BECMG 2422/2423 33009KT 9999 FEW200 QNH2993INS BECMG 2518/2519 26009KT 9999 SKC QNH2994INS TX20/2420Z TN09/2509Z AMD 242015 LAST NO AMDS AFT 2503 NEXT 2710
KPHF
(12.5 nm SE from KJGG)
251120Z 2512/2612 VRB06KT P6SM SKC FM252300 24006KT P6SM SCT080 FM260500 29007KT P6SM SKC
  Airport Weather Conditions for KJGG

 Current Weather at JGG
66° F
Fair
Northeast winds at 6.9 mph
JGG NOAA Radar

Pressure: 30.00 in
Humidity: 52%
Wind: Northeast at 6.9 MPH (6 KT)
Dew Point: 48.2°F
Visibility: 10.00 mi


Airport Weather Forecast for KJGG

Translated METAR and TAF for KJGG
Translated METAR for KJGG (1519 UTC 25 October 2014)
found at http://aviationweather.gov/adds/metars/
 
METAR text: KJGG 251455Z AUTO 03006KT 10SM CLR 19/09 A3000 RMK AO1
Conditions at: KJGG (WILLIAMSBURG , VA, US) observed 1455 UTC 25 October 2014
Temperature: 19.0°C (66°F)
Dewpoint: 9.0°C (48°F) [RH = 52%]
Pressure (altimeter): 30.00 inches Hg (1016.0 mb)
Winds: from the NNE (30 degrees) at 7 MPH (6 knots; 3.1 m/s)
Visibility: 10 or more miles (16+ km)
Ceiling: at least 12,000 feet AGL
Clouds: sky clear below 12,000 feet AGL
Weather: automated observation with no human augmentation;
there may or may not be significant weather present at this time
Translated TAF for KJGG

There is no translated TAF available for this airport

Find All Airport Services Find A Hotel Find A Rental Car Find A Golf Course Find A Restaurant $100 Hamburger



FBO's on the Field
FBO Company Facility Photos Services Transportation Aviation Fuel Prices: Prices include tax
Catering Weather Repair Courtesy Rental Type 100LL JetA JetA+ MOGAS 8087
 
Williamsburg-Jamestown

This FBO has not yet been rated
FS:Shell
Last Updated: Sep-18
Login to update fuel prices
SS:
Contact Williamsburg-JamestownMore FBO Information
 
Add another FBO Facility Photos Catering Weather Repair Courtesy Rental Type 100LL JetA JetA+ MOGAS 8087
Services Transportation Aviation Fuel Prices: Prices include tax


model-print
model-print
model-print
model-print